Terminal Aerodrome Forecast
Issued by NWS Greer, SC

Current Version | Previous Version | Text Only | Print | Product List | Glossary On
Versions: 1 2 3 4 5 6 7 8 9 10 11 12 13 14 15 16 17 18 19 20 21 22 23 24 25 26 27 28 29 30 31 32 33 34
000
FTUS42 KGSP 210520
TAFAVL
TAF
KAVL 210520Z 2106/2206 00000KT P6SM SKC
      TEMPO 2109/2113 5SM BR FEW003
     FM211300 VRB02KT P6SM FEW007
     FM211400 VRB03KT P6SM FEW250
     FM211500 15004KT P6SM FEW250
     FM220000 VRB03KT P6SM SCT250=

USA.gov is the U.S. government's official web portal to all federal, state and local government web resources and services.